Englevale, North Dakota
Current Conditions -  °F | °C
As of 10:55 AM on Sunday 23 Nov 2014 (Local Time) from KGWR Reporting Station
Clear Clear  
Wind Chill: 31°   Ceiling: Unl
Heat Index: 39°   Visibility: 10mi
Dew Point: 36°   Wind: 15mph
Humidity: 87%   Direction: 270°W
Pressure: 29.49"   Gusts: NA
Location:  46.4564°N, 97.909°W
Report Text: KGWR 231655Z AUTO 27013KT 10SM CLR 04/02 A2949 RMK A01 P000
Loading
Personal Weather Stations






























Interactive Weather Map New forecast layout! Learn more

10-Day Weather Forecast

Advertisements
Track Severe Weather on mobile